Time;durP1;ratioP1;P1;durP2;ratioP2;P2;SDS_P1;SDS_P2;PMS_P1;PMS_P2;Temp;Humidity;BMP_temperature;BMP_pressure;BME280_temperature;BME280_humidity;BME280_pressure;Samples;Min_cycle;Max_cycle;Signal;HPM_P1;HPM_P2
2022/02/25 00:01:38;;;;;;;;;;;19.00;53.30;;;;;;5004965;28;20335;-62
2022/02/25 00:04:03;;;;;;;;;;;19.00;53.30;;;;;;5004658;28;19918;-61
2022/02/25 00:06:29;;;;;;;;;;;19.00;53.50;;;;;;5027108;28;19976;-65
2022/02/25 00:08:54;;;;;;;;;;;18.90;53.60;;;;;;5005131;28;19929;-64
2022/02/25 00:11:20;;;;;;;;;;;18.90;53.60;;;;;;5004522;28;20706;-62
2022/02/25 00:13:45;;;;;;;;;;;18.90;53.60;;;;;;4979425;28;19920;-64
2022/02/25 00:16:11;;;;;;;;;;;18.80;53.60;;;;;;5002700;28;19956;-62
2022/02/25 00:18:36;;;;;;;;;;;18.90;54.10;;;;;;5004247;28;19922;-61
2022/02/25 00:21:02;;;;;;;;;;;18.80;53.70;;;;;;4999268;28;20289;-65
2022/02/25 00:23:27;;;;;;;;;;;18.80;53.70;;;;;;4985515;28;19957;-62
2022/02/25 00:25:52;;;;;;;;;;;18.90;53.50;;;;;;4985861;28;19914;-62
2022/02/25 00:28:18;;;;;;;;;;;18.90;53.50;;;;;;4985849;28;19914;-63
2022/02/25 00:30:43;;;;;;;;;;;18.80;53.60;;;;;;4988318;28;19959;-63
2022/02/25 00:33:11;;;;;;;;;;;18.70;53.90;;;;;;5004219;28;19964;-67
2022/02/25 00:35:37;;;;;;;;;;;18.70;53.80;;;;;;5004955;28;20483;-64
2022/02/25 00:38:02;;;;;;;;;;;18.80;53.80;;;;;;5004219;28;20021;-63
2022/02/25 00:40:28;;;;;;;;;;;18.70;53.80;;;;;;5004629;28;19913;-64
2022/02/25 00:42:53;;;;;;;;;;;18.70;53.90;;;;;;5004862;28;19936;-65
2022/02/25 00:45:19;;;;;;;;;;;18.70;53.70;;;;;;5005242;28;19952;-64
2022/02/25 00:47:44;;;;;;;;;;;18.70;53.90;;;;;;5004806;28;20391;-67
2022/02/25 00:50:10;;;;;;;;;;;18.60;54.00;;;;;;5004773;28;19925;-63
2022/02/25 00:52:35;;;;;;;;;;;18.50;54.20;;;;;;5004765;28;19914;-63
2022/02/25 00:55:01;;;;;;;;;;;18.50;54.20;;;;;;5003589;28;19913;-66
2022/02/25 00:57:26;;;;;;;;;;;18.50;54.40;;;;;;4991791;28;19918;-64
2022/02/25 00:59:52;;;;;;;;;;;18.60;54.10;;;;;;4984575;28;19953;-64
2022/02/25 01:02:17;;;;;;;;;;;18.50;54.10;;;;;;4985103;28;20639;-59
2022/02/25 01:04:44;;;;;;;;;;;18.50;54.10;;;;;;4984710;28;19989;-63
2022/02/25 01:07:09;;;;;;;;;;;18.60;53.80;;;;;;4985112;28;19945;-64
2022/02/25 01:09:35;;;;;;;;;;;18.60;53.90;;;;;;4984574;28;19928;-56
2022/02/25 01:12:00;;;;;;;;;;;18.50;53.90;;;;;;4984557;28;19914;-63
2022/02/25 01:14:26;;;;;;;;;;;18.50;53.80;;;;;;4984202;28;19921;-59
2022/02/25 01:16:51;;;;;;;;;;;18.50;53.90;;;;;;4984636;28;19995;-63
2022/02/25 01:19:17;;;;;;;;;;;18.60;53.90;;;;;;4984586;28;19965;-66
2022/02/25 01:21:42;;;;;;;;;;;18.50;54.00;;;;;;4984266;28;19914;-65
2022/02/25 01:24:07;;;;;;;;;;;18.50;53.80;;;;;;4984718;28;20527;-65
2022/02/25 01:26:33;;;;;;;;;;;18.50;53.90;;;;;;4986407;28;19928;-61
2022/02/25 01:28:59;;;;;;;;;;;18.50;53.80;;;;;;5002958;28;19957;-65
2022/02/25 01:31:24;;;;;;;;;;;18.50;53.80;;;;;;5016904;28;19921;-66
2022/02/25 01:33:50;;;;;;;;;;;18.50;53.90;;;;;;5003812;28;19932;-63
2022/02/25 01:36:15;;;;;;;;;;;18.50;53.90;;;;;;5003788;28;19921;-64
2022/02/25 01:38:41;;;;;;;;;;;18.40;54.00;;;;;;5003277;28;20004;-65
2022/02/25 01:41:07;;;;;;;;;;;18.40;54.10;;;;;;5003517;28;19913;-65
2022/02/25 01:43:32;;;;;;;;;;;18.40;54.20;;;;;;5029272;28;19983;-64
2022/02/25 01:45:58;;;;;;;;;;;18.40;54.10;;;;;;5004073;28;20004;-61
2022/02/25 01:48:24;;;;;;;;;;;18.40;54.00;;;;;;5003168;28;19921;-66
2022/02/25 01:50:49;;;;;;;;;;;18.40;54.00;;;;;;5003836;28;19953;-61
2022/02/25 01:53:15;;;;;;;;;;;18.40;54.00;;;;;;5003427;28;19913;-61
2022/02/25 01:55:40;;;;;;;;;;;18.40;54.00;;;;;;5002817;28;19928;-65
2022/02/25 01:58:06;;;;;;;;;;;18.30;54.10;;;;;;4993647;28;19918;-64
2022/02/25 02:00:31;;;;;;;;;;;18.30;54.10;;;;;;4984213;28;20300;-56
2022/02/25 02:02:57;;;;;;;;;;;18.40;54.00;;;;;;4983970;28;19924;-63
2022/02/25 02:05:22;;;;;;;;;;;18.30;53.90;;;;;;4984142;28;19937;-63
2022/02/25 02:07:48;;;;;;;;;;;18.40;53.80;;;;;;4984759;28;19918;-62
2022/02/25 02:10:13;;;;;;;;;;;18.20;54.00;;;;;;4984968;28;20348;-62
2022/02/25 02:12:39;;;;;;;;;;;18.20;54.20;;;;;;4985149;28;20021;-64
2022/02/25 02:15:04;;;;;;;;;;;18.20;54.20;;;;;;4982767;28;20056;-62
2022/02/25 02:17:30;;;;;;;;;;;18.20;54.00;;;;;;4983689;28;19914;-64
2022/02/25 02:19:56;;;;;;;;;;;18.20;54.00;;;;;;4983495;28;19937;-62
2022/02/25 02:22:25;;;;;;;;;;;18.20;53.80;;;;;;4984023;28;19952;-62
2022/02/25 02:24:50;;;;;;;;;;;18.20;53.80;;;;;;4983992;28;20060;-62
2022/02/25 02:27:16;;;;;;;;;;;18.30;53.70;;;;;;4983876;28;19930;-60
2022/02/25 02:29:41;;;;;;;;;;;18.30;53.50;;;;;;4983065;28;19957;-57
2022/02/25 02:32:07;;;;;;;;;;;18.20;53.80;;;;;;4983480;28;20343;-59
2022/02/25 02:34:32;;;;;;;;;;;18.10;53.90;;;;;;5004222;28;19922;-56
2022/02/25 02:36:58;;;;;;;;;;;18.10;54.00;;;;;;5007050;28;19949;-62
2022/02/25 02:39:23;;;;;;;;;;;18.20;53.90;;;;;;5007120;28;19925;-60
2022/02/25 02:41:48;;;;;;;;;;;18.10;54.00;;;;;;5007032;28;19914;-59
2022/02/25 02:44:14;;;;;;;;;;;18.10;54.10;;;;;;5006883;28;19997;-57
2022/02/25 02:46:40;;;;;;;;;;;18.00;54.00;;;;;;5007016;28;19921;-56
2022/02/25 02:49:06;;;;;;;;;;;18.10;53.90;;;;;;5006427;28;19918;-62
2022/02/25 02:51:31;;;;;;;;;;;18.10;53.80;;;;;;5006914;28;19913;-58
2022/02/25 02:53:57;;;;;;;;;;;18.20;53.70;;;;;;5006474;28;19935;-58
2022/02/25 02:56:22;;;;;;;;;;;18.20;53.60;;;;;;5006815;28;19913;-58
2022/02/25 02:58:55;;;;;;;;;;;18.30;53.30;;;;;;5005879;28;19929;-60
2022/02/25 03:01:22;;;;;;;;;;;18.30;53.40;;;;;;5005496;28;19914;-54
2022/02/25 03:03:47;;;;;;;;;;;18.20;53.50;;;;;;5006653;28;20320;-60
2022/02/25 03:06:13;;;;;;;;;;;18.30;53.50;;;;;;5006483;28;19914;-59
2022/02/25 03:08:38;;;;;;;;;;;18.20;53.50;;;;;;5006132;28;19984;-64
2022/02/25 03:11:04;;;;;;;;;;;18.10;53.60;;;;;;5006606;28;19921;-63
2022/02/25 03:13:29;;;;;;;;;;;18.10;53.60;;;;;;5004365;28;20344;-55
2022/02/25 03:15:55;;;;;;;;;;;18.10;53.60;;;;;;4986731;28;19918;-59
2022/02/25 03:18:20;;;;;;;;;;;18.20;53.50;;;;;;4986764;28;19924;-58
2022/02/25 03:20:46;;;;;;;;;;;18.20;53.40;;;;;;4986326;28;19914;-56
2022/02/25 03:23:12;;;;;;;;;;;18.10;53.50;;;;;;4986725;28;19922;-57
2022/02/25 03:25:38;;;;;;;;;;;18.10;53.60;;;;;;4986364;28;19918;-59
2022/02/25 03:28:04;;;;;;;;;;;18.00;53.60;;;;;;4986656;28;20476;-61
2022/02/25 03:30:30;;;;;;;;;;;18.10;53.50;;;;;;4986365;28;19921;-59
2022/02/25 03:32:56;;;;;;;;;;;18.00;53.50;;;;;;4994186;28;19917;-62
2022/02/25 03:35:21;;;;;;;;;;;18.00;53.70;;;;;;4990317;28;19913;-62
2022/02/25 03:37:47;;;;;;;;;;;18.00;53.70;;;;;;5007338;28;19917;-61
2022/02/25 03:40:12;;;;;;;;;;;18.10;53.40;;;;;;5005713;28;20373;-62
2022/02/25 03:42:38;;;;;;;;;;;18.00;53.50;;;;;;5005742;28;19913;-56
2022/02/25 03:45:04;;;;;;;;;;;18.00;53.50;;;;;;5016136;28;19924;-59
2022/02/25 03:47:30;;;;;;;;;;;18.10;53.40;;;;;;5004416;28;19913;-57
2022/02/25 03:49:56;;;;;;;;;;;18.10;53.30;;;;;;4995795;28;19920;-59
2022/02/25 03:52:21;;;;;;;;;;;18.20;53.00;;;;;;4986641;28;19914;-59
2022/02/25 03:54:47;;;;;;;;;;;18.10;53.10;;;;;;4985948;28;20004;-60
2022/02/25 03:57:12;;;;;;;;;;;18.20;53.10;;;;;;4984641;28;20520;-64
2022/02/25 03:59:37;;;;;;;;;;;18.20;53.10;;;;;;4985469;28;19918;-62
2022/02/25 04:02:03;;;;;;;;;;;18.10;53.10;;;;;;4986218;28;19918;-64
2022/02/25 04:04:29;;;;;;;;;;;18.00;53.10;;;;;;4985890;28;19921;-62
2022/02/25 04:06:54;;;;;;;;;;;18.00;53.10;;;;;;4985435;28;19914;-64
2022/02/25 04:09:19;;;;;;;;;;;18.10;53.20;;;;;;4992593;28;20377;-55
2022/02/25 04:11:45;;;;;;;;;;;18.00;53.10;;;;;;4990333;28;19971;-58
2022/02/25 04:14:11;;;;;;;;;;;18.00;53.20;;;;;;4985684;28;19917;-61
2022/02/25 04:16:36;;;;;;;;;;;18.00;53.10;;;;;;5003340;28;19970;-60
2022/02/25 04:19:04;;;;;;;;;;;18.00;53.30;;;;;;5004774;28;19918;-64
2022/02/25 04:21:30;;;;;;;;;;;17.90;53.50;;;;;;5004927;28;19921;-53
2022/02/25 04:23:55;;;;;;;;;;;17.90;53.60;;;;;;5005153;28;19921;-59
2022/02/25 04:26:21;;;;;;;;;;;17.90;53.60;;;;;;5005929;28;19914;-60
2022/02/25 04:28:46;;;;;;;;;;;17.80;53.70;;;;;;5005079;28;19914;-61
2022/02/25 04:31:11;;;;;;;;;;;17.80;53.80;;;;;;5004980;28;19914;-60
2022/02/25 04:33:37;;;;;;;;;;;17.70;54.10;;;;;;5028904;28;19974;-61
2022/02/25 04:36:03;;;;;;;;;;;17.70;54.00;;;;;;5004389;28;19921;-63
2022/02/25 04:38:28;;;;;;;;;;;17.60;54.10;;;;;;5004686;28;20307;-60
2022/02/25 04:40:57;;;;;;;;;;;17.60;54.10;;;;;;5004590;28;19913;-59
2022/02/25 04:43:22;;;;;;;;;;;17.60;54.10;;;;;;5005104;28;20420;-60
2022/02/25 04:45:50;;;;;;;;;;;17.60;54.10;;;;;;5004277;28;19913;-62
2022/02/25 04:48:15;;;;;;;;;;;17.70;54.10;;;;;;5004210;28;19929;-56
2022/02/25 04:50:41;;;;;;;;;;;17.60;54.20;;;;;;5004489;28;20388;-58
2022/02/25 04:53:06;;;;;;;;;;;17.60;54.30;;;;;;5004333;28;19964;-60
2022/02/25 04:55:32;;;;;;;;;;;17.60;54.30;;;;;;5004673;28;19914;-55
2022/02/25 04:57:57;;;;;;;;;;;17.60;54.10;;;;;;5002620;28;20399;-61
2022/02/25 05:00:23;;;;;;;;;;;17.60;54.70;;;;;;5000940;28;19921;-62
2022/02/25 05:02:48;;;;;;;;;;;17.60;54.20;;;;;;4985820;28;19936;-56
2022/02/25 05:05:14;;;;;;;;;;;17.50;54.30;;;;;;4987339;28;19922;-62
2022/02/25 05:07:39;;;;;;;;;;;17.50;54.40;;;;;;5004180;28;20450;-58
2022/02/25 05:10:05;;;;;;;;;;;17.50;54.30;;;;;;5003527;28;19918;-62
2022/02/25 05:12:30;;;;;;;;;;;17.50;54.30;;;;;;5004403;28;20000;-63
2022/02/25 05:20:24;;;;;;;;;;;17.50;54.30;;;;;;5000468;28;19920;-64
2022/02/25 05:22:53;;;;;;;;;;;17.50;54.40;;;;;;4985063;28;19914;-65
2022/02/25 05:25:18;;;;;;;;;;;17.50;54.50;;;;;;4984164;28;19921;-67
2022/02/25 05:27:44;;;;;;;;;;;17.50;54.50;;;;;;4984750;28;19958;-62
2022/02/25 05:30:09;;;;;;;;;;;17.50;54.60;;;;;;4984306;28;19914;-55
2022/02/25 05:32:35;;;;;;;;;;;17.60;54.50;;;;;;5001654;28;20051;-63
2022/02/25 05:35:01;;;;;;;;;;;17.60;54.60;;;;;;5003660;28;19967;-62
2022/02/25 05:37:26;;;;;;;;;;;17.60;54.60;;;;;;4998363;28;19984;-65
2022/02/25 05:39:52;;;;;;;;;;;17.60;54.70;;;;;;5000424;28;19921;-65
2022/02/25 05:42:18;;;;;;;;;;;17.60;54.80;;;;;;5003709;28;19913;-66
2022/02/25 05:44:43;;;;;;;;;;;17.70;54.90;;;;;;5003643;28;19914;-64
2022/02/25 05:47:08;;;;;;;;;;;17.60;54.80;;;;;;5003093;28;20427;-63
2022/02/25 05:49:34;;;;;;;;;;;17.60;55.10;;;;;;5003100;28;19924;-64
2022/02/25 05:51:59;;;;;;;;;;;17.60;55.20;;;;;;5004103;28;19921;-67
2022/02/25 05:54:25;;;;;;;;;;;17.60;55.10;;;;;;5003861;28;19914;-64
2022/02/25 05:56:50;;;;;;;;;;;17.60;55.20;;;;;;4996397;28;19965;-65
2022/02/25 05:59:16;;;;;;;;;;;17.50;55.40;;;;;;4983462;28;19921;-65
2022/02/25 06:01:41;;;;;;;;;;;17.40;55.50;;;;;;4990141;28;19914;-65
2022/02/25 06:04:07;;;;;;;;;;;17.50;55.60;;;;;;5003510;28;19928;-65
2022/02/25 06:06:32;;;;;;;;;;;17.40;55.60;;;;;;4995665;28;20442;-66
2022/02/25 06:08:58;;;;;;;;;;;17.40;55.60;;;;;;4982576;28;19960;-67
2022/02/25 06:11:23;;;;;;;;;;;17.40;55.70;;;;;;4984099;28;20284;-64
2022/02/25 06:13:49;;;;;;;;;;;17.40;55.50;;;;;;4983671;28;19914;-66
2022/02/25 06:16:15;;;;;;;;;;;17.40;55.60;;;;;;4984069;28;19944;-66
2022/02/25 06:18:42;;;;;;;;;;;17.40;55.50;;;;;;4983471;28;20105;-65
2022/02/25 06:21:08;;;;;;;;;;;17.40;55.80;;;;;;4984171;28;19929;-65
2022/02/25 06:23:34;;;;;;;;;;;17.40;55.80;;;;;;4983799;28;19997;-65
2022/02/25 06:25:59;;;;;;;;;;;17.40;55.70;;;;;;4983762;28;19914;-66
2022/02/25 06:28:24;;;;;;;;;;;17.40;55.50;;;;;;4983432;28;19921;-62
2022/02/25 06:30:50;;;;;;;;;;;17.40;56.40;;;;;;5002192;28;20378;-64
2022/02/25 06:33:15;;;;;;;;;;;17.40;56.90;;;;;;4992574;28;19917;-64
2022/02/25 06:35:41;;;;;;;;;;;17.40;56.90;;;;;;4992215;28;19921;-64
2022/02/25 06:38:06;;;;;;;;;;;17.30;56.80;;;;;;5000033;28;20500;-63
2022/02/25 06:40:32;;;;;;;;;;;17.30;56.50;;;;;;5003703;28;19922;-66
2022/02/25 06:42:57;;;;;;;;;;;17.30;56.00;;;;;;4992270;28;19914;-63
2022/02/25 06:45:23;;;;;;;;;;;17.40;55.40;;;;;;4985638;28;19914;-62
2022/02/25 06:47:48;;;;;;;;;;;17.40;55.00;;;;;;4984824;28;19921;-63
2022/02/25 06:50:14;;;;;;;;;;;17.50;54.30;;;;;;4983988;28;19969;-63
2022/02/25 06:52:40;;;;;;;;;;;17.40;53.90;;;;;;4993149;28;20503;-64
2022/02/25 06:55:05;;;;;;;;;;;17.40;53.60;;;;;;5002484;28;20377;-62
2022/02/25 06:57:31;;;;;;;;;;;17.30;53.60;;;;;;5002851;28;19914;-63
2022/02/25 06:59:56;;;;;;;;;;;17.30;53.40;;;;;;4998629;28;20009;-66
2022/02/25 07:02:22;;;;;;;;;;;17.20;53.30;;;;;;5001988;28;19913;-65
2022/02/25 07:04:48;;;;;;;;;;;17.30;53.30;;;;;;5001709;28;20380;-64
2022/02/25 07:07:13;;;;;;;;;;;17.30;53.40;;;;;;5002018;28;19913;-65
2022/02/25 07:09:40;;;;;;;;;;;17.30;54.00;;;;;;5001116;28;20308;-65
2022/02/25 07:12:05;;;;;;;;;;;17.30;54.70;;;;;;5001229;28;19933;-64
2022/02/25 07:14:33;;;;;;;;;;;17.30;56.00;;;;;;5002071;28;19913;-64
2022/02/25 07:16:59;;;;;;;;;;;17.30;56.10;;;;;;5002451;28;21623;-63
2022/02/25 07:19:24;;;;;;;;;;;17.30;57.00;;;;;;4987607;28;19922;-65
2022/02/25 07:21:50;;;;;;;;;;;17.20;58.30;;;;;;4986440;28;20398;-63
2022/02/25 07:24:15;;;;;;;;;;;17.20;58.20;;;;;;5000564;28;19976;-64
2022/02/25 07:26:40;;;;;;;;;;;17.20;58.70;;;;;;5006165;28;19920;-63
2022/02/25 07:29:06;;;;;;;;;;;17.50;58.00;;;;;;5005345;28;19953;-63
2022/02/25 07:31:31;;;;;;;;;;;17.80;56.90;;;;;;5005358;28;20339;-66
2022/02/25 07:33:57;;;;;;;;;;;17.90;56.40;;;;;;5028489;28;19914;-62
2022/02/25 07:36:22;;;;;;;;;;;17.90;56.20;;;;;;5005994;28;19995;-63
2022/02/25 07:38:48;;;;;;;;;;;18.00;56.20;;;;;;5004906;28;20305;-65
2022/02/25 07:41:13;;;;;;;;;;;17.90;56.90;;;;;;5006055;28;19914;-62
2022/02/25 07:43:38;;;;;;;;;;;18.00;57.00;;;;;;5005296;28;20377;-63
2022/02/25 07:46:04;;;;;;;;;;;17.90;56.60;;;;;;5005742;28;19918;-64
2022/02/25 07:48:29;;;;;;;;;;;18.10;56.80;;;;;;5005470;28;19960;-65
2022/02/25 07:50:55;;;;;;;;;;;18.10;56.20;;;;;;5006445;28;20439;-62
2022/02/25 07:53:20;;;;;;;;;;;18.20;55.70;;;;;;5005528;28;19913;-66
2022/02/25 07:55:46;;;;;;;;;;;18.40;55.20;;;;;;5006073;28;19940;-64
2022/02/25 07:58:12;;;;;;;;;;;18.60;54.80;;;;;;5005085;28;19924;-63
2022/02/25 08:00:38;;;;;;;;;;;18.90;53.90;;;;;;5005912;28;19944;-62
2022/02/25 08:03:03;;;;;;;;;;;19.00;53.30;;;;;;5004867;28;20139;-63
2022/02/25 08:05:29;;;;;;;;;;;19.10;53.00;;;;;;4985528;28;19921;-63
2022/02/25 08:07:56;;;;;;;;;;;19.20;52.90;;;;;;4986371;28;19918;-64
2022/02/25 08:10:22;;;;;;;;;;;19.30;52.50;;;;;;5003432;28;20365;-63
2022/02/25 08:12:47;;;;;;;;;;;19.40;52.00;;;;;;5005222;28;19913;-63
2022/02/25 08:15:14;;;;;;;;;;;19.50;51.90;;;;;;4987236;28;19996;-63
2022/02/25 08:17:39;;;;;;;;;;;19.60;51.60;;;;;;4986554;28;19918;-63
2022/02/25 08:20:05;;;;;;;;;;;19.60;51.70;;;;;;4986254;28;20074;-64
2022/02/25 08:22:31;;;;;;;;;;;19.70;51.50;;;;;;4984900;28;19921;-66
2022/02/25 08:24:56;;;;;;;;;;;19.70;51.10;;;;;;4984330;28;20296;-65
2022/02/25 08:27:22;;;;;;;;;;;19.70;51.00;;;;;;4985660;28;19913;-63
2022/02/25 08:29:47;;;;;;;;;;;19.80;51.10;;;;;;4983433;28;19914;-63
2022/02/25 08:32:13;;;;;;;;;;;19.80;50.70;;;;;;4984673;28;19992;-63
2022/02/25 08:34:39;;;;;;;;;;;19.80;50.70;;;;;;4995312;28;20288;-63
2022/02/25 08:37:05;;;;;;;;;;;19.90;50.70;;;;;;5004804;28;19924;-65
2022/02/25 08:39:30;;;;;;;;;;;19.90;50.50;;;;;;5004229;28;19917;-62
2022/02/25 08:41:56;;;;;;;;;;;20.00;50.20;;;;;;5005062;28;19921;-63
2022/02/25 08:44:22;;;;;;;;;;;20.00;50.20;;;;;;5004728;28;20538;-66
2022/02/25 08:46:48;;;;;;;;;;;20.00;50.10;;;;;;5004197;28;19918;-65
2022/02/25 08:49:13;;;;;;;;;;;20.00;50.20;;;;;;5002133;28;19920;-67
2022/02/25 08:51:40;;;;;;;;;;;20.00;50.20;;;;;;4982560;28;19914;-64
2022/02/25 08:54:06;;;;;;;;;;;20.00;50.10;;;;;;4985796;28;20542;-65
2022/02/25 08:56:31;;;;;;;;;;;19.90;50.00;;;;;;5004164;28;19921;-64
2022/02/25 08:58:57;;;;;;;;;;;20.00;50.00;;;;;;5003192;28;20015;-62
2022/02/25 09:01:23;;;;;;;;;;;20.00;50.00;;;;;;5004847;28;19921;-63
2022/02/25 09:03:49;;;;;;;;;;;19.90;50.00;;;;;;5004310;28;20606;-63
2022/02/25 09:06:14;;;;;;;;;;;19.80;50.10;;;;;;4985419;28;19949;-63
2022/02/25 09:08:40;;;;;;;;;;;19.80;50.20;;;;;;4984087;28;19921;-63
2022/02/25 09:11:05;;;;;;;;;;;19.60;50.40;;;;;;4984460;28;19918;-65
2022/02/25 09:13:31;;;;;;;;;;;19.50;50.70;;;;;;4984224;28;19965;-66
2022/02/25 09:15:56;;;;;;;;;;;19.40;51.00;;;;;;5000682;28;20394;-64
2022/02/25 09:18:22;;;;;;;;;;;19.30;51.00;;;;;;5003429;28;19926;-63
2022/02/25 09:20:47;;;;;;;;;;;19.30;51.20;;;;;;4992423;28;20424;-64
2022/02/25 09:23:13;;;;;;;;;;;19.20;51.30;;;;;;4983570;28;19914;-65
2022/02/25 09:25:38;;;;;;;;;;;19.20;51.50;;;;;;4982643;28;20492;-63
2022/02/25 09:28:04;;;;;;;;;;;19.10;51.50;;;;;;4983841;28;19914;-62
2022/02/25 09:30:29;;;;;;;;;;;19.10;51.60;;;;;;4992205;28;19953;-65
2022/02/25 09:32:54;;;;;;;;;;;19.10;51.60;;;;;;5003793;28;19921;-63
2022/02/25 09:35:20;;;;;;;;;;;19.10;51.70;;;;;;4995961;28;19989;-64
2022/02/25 09:37:46;;;;;;;;;;;19.00;51.80;;;;;;4984227;28;19960;-65
2022/02/25 09:40:12;;;;;;;;;;;19.00;51.90;;;;;;4983071;28;19938;-63
2022/02/25 09:42:38;;;;;;;;;;;19.00;52.00;;;;;;4983880;28;19918;-65
2022/02/25 09:45:04;;;;;;;;;;;19.00;52.20;;;;;;4983425;28;19925;-65
2022/02/25 09:47:29;;;;;;;;;;;19.00;52.00;;;;;;4983389;28;19913;-65
2022/02/25 09:49:55;;;;;;;;;;;18.90;51.90;;;;;;4983652;28;20009;-62
2022/02/25 09:52:20;;;;;;;;;;;18.90;52.00;;;;;;4983222;28;19961;-63
2022/02/25 09:54:46;;;;;;;;;;;18.80;52.30;;;;;;4983567;28;19920;-62
2022/02/25 09:57:11;;;;;;;;;;;18.80;52.30;;;;;;4983743;28;19914;-62
2022/02/25 09:59:37;;;;;;;;;;;18.80;52.40;;;;;;4983126;28;19921;-66
2022/02/25 10:02:03;;;;;;;;;;;18.80;52.40;;;;;;5000685;28;20284;-66
2022/02/25 10:04:29;;;;;;;;;;;18.70;52.40;;;;;;5034209;28;19968;-64
2022/02/25 10:06:54;;;;;;;;;;;18.70;52.40;;;;;;5003451;28;20303;-62
2022/02/25 10:09:31;;;;;;;;;;;18.70;52.50;;;;;;5002390;28;20668;-63
2022/02/25 10:12:09;;;;;;;;;;;18.70;52.50;;;;;;4995582;28;20291;-63
2022/02/25 10:14:36;;;;;;;;;;;18.60;52.50;;;;;;5000708;28;19918;-64
2022/02/25 10:17:08;;;;;;;;;;;18.60;52.50;;;;;;4986270;28;20400;-65
2022/02/25 10:19:33;;;;;;;;;;;18.70;52.60;;;;;;4992025;28;19933;-63
2022/02/25 10:22:12;;;;;;;;;;;18.60;52.60;;;;;;5003207;28;19913;-62
2022/02/25 10:24:54;;;;;;;;;;;18.60;52.60;;;;;;5002351;28;19917;-63
2022/02/25 10:27:20;;;;;;;;;;;18.70;52.60;;;;;;4985949;28;20560;-66
2022/02/25 10:29:56;;;;;;;;;;;18.70;52.60;;;;;;4982929;28;19972;-64
2022/02/25 10:32:28;;;;;;;;;;;18.70;52.40;;;;;;4981817;28;19914;-59
2022/02/25 10:34:54;;;;;;;;;;;18.70;52.60;;;;;;4996898;28;20380;-64
2022/02/25 10:37:20;;;;;;;;;;;18.80;52.50;;;;;;5003538;28;19920;-62
2022/02/25 10:39:46;;;;;;;;;;;18.70;52.40;;;;;;4992817;28;20551;-64
2022/02/25 10:42:13;;;;;;;;;;;18.70;52.30;;;;;;4996489;28;19974;-61
2022/02/25 10:44:45;;;;;;;;;;;18.70;52.30;;;;;;5010360;28;20000;-64
2022/02/25 10:47:11;;;;;;;;;;;18.70;52.40;;;;;;5012532;28;19913;-62
2022/02/25 10:49:37;;;;;;;;;;;18.70;52.30;;;;;;5007003;28;20752;-60
2022/02/25 10:52:18;;;;;;;;;;;18.60;52.30;;;;;;5009470;28;19921;-65
2022/02/25 10:54:43;;;;;;;;;;;18.70;52.50;;;;;;5003954;28;20204;-56
2022/02/25 10:57:14;;;;;;;;;;;18.50;52.50;;;;;;5018679;28;19924;-63
2022/02/25 10:59:43;;;;;;;;;;;18.50;52.60;;;;;;5007344;28;20363;-63
2022/02/25 11:02:28;;;;;;;;;;;18.40;52.60;;;;;;5006610;28;19924;-62
2022/02/25 11:04:59;;;;;;;;;;;18.40;52.70;;;;;;5005466;28;19949;-63
2022/02/25 11:07:27;;;;;;;;;;;18.40;52.90;;;;;;5014274;28;19913;-58
2022/02/25 11:09:53;;;;;;;;;;;18.40;52.70;;;;;;5010753;28;19921;-63
2022/02/25 11:12:19;;;;;;;;;;;18.50;52.50;;;;;;5015270;28;20004;-64
2022/02/25 11:14:45;;;;;;;;;;;18.50;52.30;;;;;;5005525;28;20004;-62
2022/02/25 11:17:10;;;;;;;;;;;18.50;52.30;;;;;;5003462;28;19921;-60
2022/02/25 11:19:36;;;;;;;;;;;18.50;52.20;;;;;;4984525;28;19921;-61
2022/02/25 11:22:03;;;;;;;;;;;18.50;52.20;;;;;;4993896;28;19918;-62
2022/02/25 11:24:31;;;;;;;;;;;18.50;52.10;;;;;;4977387;28;19921;-64
2022/02/25 11:26:57;;;;;;;;;;;18.50;52.10;;;;;;4985310;28;20001;-60
2022/02/25 11:29:23;;;;;;;;;;;18.50;52.20;;;;;;4981630;28;19913;-60
2022/02/25 11:31:48;;;;;;;;;;;18.60;52.10;;;;;;4987778;28;19985;-63
2022/02/25 11:34:15;;;;;;;;;;;18.60;52.10;;;;;;5005884;28;19913;-62
2022/02/25 11:36:41;;;;;;;;;;;18.60;52.00;;;;;;5013903;28;19914;-61
2022/02/25 11:39:19;;;;;;;;;;;18.50;52.00;;;;;;5003334;28;19979;-65
2022/02/25 11:41:51;;;;;;;;;;;18.50;52.00;;;;;;5007414;28;19917;-64
2022/02/25 11:44:17;;;;;;;;;;;18.50;52.00;;;;;;4981931;28;19913;-62
2022/02/25 11:46:42;;;;;;;;;;;18.50;52.00;;;;;;4996638;28;20312;-60
2022/02/25 11:49:07;;;;;;;;;;;18.60;52.00;;;;;;4999156;28;19924;-62
2022/02/25 11:51:34;;;;;;;;;;;18.60;51.90;;;;;;5019628;28;19917;-61
2022/02/25 11:54:18;;;;;;;;;;;18.60;51.80;;;;;;4999170;28;19963;-61
2022/02/25 11:56:43;;;;;;;;;;;18.70;51.70;;;;;;5015047;28;19914;-60
2022/02/25 11:59:09;;;;;;;;;;;18.70;51.60;;;;;;4975963;28;19933;-57
2022/02/25 12:01:34;;;;;;;;;;;18.70;51.50;;;;;;5013804;28;19917;-56
2022/02/25 12:04:06;;;;;;;;;;;18.70;51.50;;;;;;4979042;28;19918;-59
2022/02/25 12:06:50;;;;;;;;;;;18.70;52.10;;;;;;4996255;28;19921;-64
2022/02/25 12:09:16;;;;;;;;;;;18.70;51.50;;;;;;4979290;28;19922;-64
2022/02/25 12:11:42;;;;;;;;;;;18.70;51.60;;;;;;4983912;28;19993;-65
2022/02/25 12:14:07;;;;;;;;;;;18.70;51.60;;;;;;4975833;28;19921;-56
2022/02/25 12:16:33;;;;;;;;;;;18.70;51.50;;;;;;4995608;28;19914;-60
2022/02/25 12:19:05;;;;;;;;;;;18.70;51.50;;;;;;4977361;28;20028;-63
2022/02/25 12:21:41;;;;;;;;;;;18.60;51.60;;;;;;4996218;28;19914;-55
2022/02/25 12:24:13;;;;;;;;;;;18.60;51.60;;;;;;4976769;28;19928;-61
2022/02/25 12:26:39;;;;;;;;;;;18.50;51.70;;;;;;4994958;28;19914;-60
2022/02/25 12:29:15;;;;;;;;;;;18.50;51.80;;;;;;4978858;28;19922;-63
2022/02/25 12:31:42;;;;;;;;;;;18.50;51.70;;;;;;4983801;28;19914;-63
2022/02/25 12:34:07;;;;;;;;;;;18.50;51.70;;;;;;4979276;28;20588;-63
2022/02/25 12:36:32;;;;;;;;;;;18.50;51.70;;;;;;4995320;28;20001;-65
2022/02/25 12:38:59;;;;;;;;;;;18.50;51.70;;;;;;4976166;28;19921;-62
2022/02/25 12:41:25;;;;;;;;;;;18.50;51.60;;;;;;4996384;28;19913;-63
2022/02/25 12:43:51;;;;;;;;;;;18.50;51.70;;;;;;4976313;28;19914;-62
2022/02/25 12:46:17;;;;;;;;;;;18.50;51.60;;;;;;4997648;28;19913;-58
2022/02/25 12:48:43;;;;;;;;;;;18.50;51.60;;;;;;4975018;28;19929;-62
2022/02/25 12:51:08;;;;;;;;;;;18.50;51.60;;;;;;4997887;28;19984;-62
2022/02/25 12:53:52;;;;;;;;;;;18.60;51.60;;;;;;4974483;28;19918;-64
2022/02/25 12:56:18;;;;;;;;;;;18.50;51.50;;;;;;4997405;28;20290;-62
2022/02/25 12:58:44;;;;;;;;;;;18.60;51.60;;;;;;4975642;28;20335;-61
2022/02/25 13:01:15;;;;;;;;;;;18.60;51.50;;;;;;4997580;28;19913;-60
2022/02/25 13:03:40;;;;;;;;;;;18.60;51.50;;;;;;4975151;28;20602;-64
2022/02/25 13:06:06;;;;;;;;;;;18.60;51.50;;;;;;4983781;28;20377;-58
2022/02/25 13:08:31;;;;;;;;;;;18.60;51.50;;;;;;4985002;28;19921;-56
2022/02/25 13:11:00;;;;;;;;;;;18.70;51.50;;;;;;4989321;28;19946;-63
2022/02/25 13:13:25;;;;;;;;;;;18.60;51.40;;;;;;4984851;28;20830;-62
2022/02/25 13:16:01;;;;;;;;;;;18.60;51.40;;;;;;4987588;28;19921;-63
2022/02/25 13:18:26;;;;;;;;;;;18.70;51.30;;;;;;4983142;28;20231;-54
2022/02/25 13:20:59;;;;;;;;;;;18.70;51.30;;;;;;4988082;28;19914;-63
2022/02/25 13:23:24;;;;;;;;;;;18.70;51.40;;;;;;4996454;28;19960;-62
2022/02/25 13:25:54;;;;;;;;;;;18.70;51.40;;;;;;5020112;28;19913;-58
2022/02/25 13:28:20;;;;;;;;;;;18.70;51.30;;;;;;5003822;28;20615;-58
2022/02/25 13:30:47;;;;;;;;;;;18.70;51.20;;;;;;4974345;28;19929;-63
2022/02/25 13:33:13;;;;;;;;;;;18.60;51.20;;;;;;4983950;28;19933;-62
2022/02/25 13:35:45;;;;;;;;;;;18.60;51.30;;;;;;5005134;28;19913;-63
2022/02/25 13:38:19;;;;;;;;;;;18.60;51.40;;;;;;4966608;28;20052;-64
2022/02/25 13:40:48;;;;;;;;;;;18.60;51.40;;;;;;4983467;28;19975;-62
2022/02/25 13:43:24;;;;;;;;;;;18.60;51.40;;;;;;4992783;28;19981;-62
2022/02/25 13:45:50;;;;;;;;;;;18.70;51.40;;;;;;4986617;28;19913;-63
2022/02/25 13:53:52;;;;;;;;;;;18.60;51.30;;;;;;4991894;28;20462;-63
2022/02/25 13:56:18;;;;;;;;;;;18.60;51.40;;;;;;4982904;28;19914;-63
2022/02/25 13:58:43;;;;;;;;;;;18.50;51.50;;;;;;4975014;28;19917;-65
2022/02/25 14:01:16;;;;;;;;;;;18.50;51.60;;;;;;4981458;28;19918;-65
2022/02/25 14:03:41;;;;;;;;;;;18.50;51.60;;;;;;4974340;28;20004;-63
2022/02/25 14:06:20;;;;;;;;;;;18.50;51.40;;;;;;4998072;28;19921;-61
2022/02/25 14:08:46;;;;;;;;;;;18.50;51.50;;;;;;4974274;28;19929;-61
2022/02/25 14:11:11;;;;;;;;;;;18.50;51.40;;;;;;4997378;28;19914;-62
2022/02/25 14:13:37;;;;;;;;;;;18.50;51.50;;;;;;4974017;28;19925;-55
2022/02/25 14:16:02;;;;;;;;;;;18.50;51.60;;;;;;4981821;28;20287;-58
2022/02/25 14:18:28;;;;;;;;;;;18.50;51.60;;;;;;4984682;28;19918;-59
2022/02/25 14:20:53;;;;;;;;;;;18.50;51.60;;;;;;4987276;28;19913;-56
2022/02/25 14:23:19;;;;;;;;;;;18.50;51.60;;;;;;4983754;28;19914;-54